sensor_id;sensor_type;location;lat;lon;timestamp;temperature;humidity
11824;DHT22;5969;50.780;7.726;2022-08-14T00:01:43;17.00;99.90
11824;DHT22;5969;50.780;7.726;2022-08-14T00:04:10;16.90;99.90
11824;DHT22;5969;50.780;7.726;2022-08-14T00:06:37;16.70;99.90
11824;DHT22;5969;50.780;7.726;2022-08-14T00:09:04;16.70;99.90
11824;DHT22;5969;50.780;7.726;2022-08-14T00:11:30;16.70;99.90
11824;DHT22;5969;50.780;7.726;2022-08-14T00:13:57;16.70;99.90
11824;DHT22;5969;50.780;7.726;2022-08-14T00:16:26;16.70;99.90
11824;DHT22;5969;50.780;7.726;2022-08-14T00:18:52;16.60;99.90
11824;DHT22;5969;50.780;7.726;2022-08-14T00:21:19;16.50;99.90
11824;DHT22;5969;50.780;7.726;2022-08-14T00:23:46;16.50;99.90
11824;DHT22;5969;50.780;7.726;2022-08-14T00:26:13;16.50;99.90
11824;DHT22;5969;50.780;7.726;2022-08-14T00:28:40;16.60;99.90
11824;DHT22;5969;50.780;7.726;2022-08-14T00:31:07;16.60;99.90
11824;DHT22;5969;50.780;7.726;2022-08-14T00:33:35;16.60;99.90
11824;DHT22;5969;50.780;7.726;2022-08-14T00:36:02;16.50;99.90
11824;DHT22;5969;50.780;7.726;2022-08-14T00:38:29;16.40;99.90
11824;DHT22;5969;50.780;7.726;2022-08-14T00:40:56;16.30;99.90
11824;DHT22;5969;50.780;7.726;2022-08-14T00:43:23;16.30;99.90
11824;DHT22;5969;50.780;7.726;2022-08-14T00:45:49;16.20;99.90
11824;DHT22;5969;50.780;7.726;2022-08-14T00:48:16;16.20;99.90
11824;DHT22;5969;50.780;7.726;2022-08-14T00:50:45;16.10;99.90
11824;DHT22;5969;50.780;7.726;2022-08-14T00:53:11;16.10;99.90
11824;DHT22;5969;50.780;7.726;2022-08-14T00:55:41;16.10;99.90
11824;DHT22;5969;50.780;7.726;2022-08-14T00:58:11;16.00;99.90
11824;DHT22;5969;50.780;7.726;2022-08-14T01:00:56;16.10;99.90
11824;DHT22;5969;50.780;7.726;2022-08-14T01:03:25;16.10;99.90
11824;DHT22;5969;50.780;7.726;2022-08-14T01:05:53;16.10;99.90
11824;DHT22;5969;50.780;7.726;2022-08-14T01:08:22;16.00;99.90
11824;DHT22;5969;50.780;7.726;2022-08-14T01:10:49;16.00;99.90
11824;DHT22;5969;50.780;7.726;2022-08-14T01:13:19;16.00;99.90
11824;DHT22;5969;50.780;7.726;2022-08-14T01:15:48;16.00;99.90
11824;DHT22;5969;50.780;7.726;2022-08-14T01:18:15;16.00;99.90
11824;DHT22;5969;50.780;7.726;2022-08-14T01:21:02;16.00;99.90
11824;DHT22;5969;50.780;7.726;2022-08-14T01:23:33;15.90;99.90
11824;DHT22;5969;50.780;7.726;2022-08-14T01:26:01;16.00;99.90
11824;DHT22;5969;50.780;7.726;2022-08-14T01:28:29;15.90;99.90
11824;DHT22;5969;50.780;7.726;2022-08-14T01:30:59;16.00;99.90
11824;DHT22;5969;50.780;7.726;2022-08-14T01:33:28;15.90;99.90
11824;DHT22;5969;50.780;7.726;2022-08-14T01:35:55;16.00;99.90
11824;DHT22;5969;50.780;7.726;2022-08-14T01:38:23;16.00;99.90
11824;DHT22;5969;50.780;7.726;2022-08-14T01:40:52;16.00;99.90
11824;DHT22;5969;50.780;7.726;2022-08-14T01:43:19;16.00;99.90
11824;DHT22;5969;50.780;7.726;2022-08-14T01:45:46;16.10;99.90
11824;DHT22;5969;50.780;7.726;2022-08-14T01:48:16;16.10;99.90
11824;DHT22;5969;50.780;7.726;2022-08-14T01:50:44;16.20;99.90
11824;DHT22;5969;50.780;7.726;2022-08-14T01:53:11;16.20;99.90
11824;DHT22;5969;50.780;7.726;2022-08-14T01:55:38;16.20;99.90
11824;DHT22;5969;50.780;7.726;2022-08-14T01:58:07;16.20;99.90
11824;DHT22;5969;50.780;7.726;2022-08-14T02:00:37;16.20;99.90
11824;DHT22;5969;50.780;7.726;2022-08-14T02:03:04;16.20;99.90
11824;DHT22;5969;50.780;7.726;2022-08-14T02:05:32;16.20;99.90
11824;DHT22;5969;50.780;7.726;2022-08-14T02:07:59;16.10;99.90
11824;DHT22;5969;50.780;7.726;2022-08-14T02:10:26;16.00;99.90
11824;DHT22;5969;50.780;7.726;2022-08-14T02:12:54;16.00;99.90
11824;DHT22;5969;50.780;7.726;2022-08-14T02:15:23;16.00;99.90
11824;DHT22;5969;50.780;7.726;2022-08-14T02:17:50;16.00;99.90
11824;DHT22;5969;50.780;7.726;2022-08-14T02:20:17;16.00;99.90
11824;DHT22;5969;50.780;7.726;2022-08-14T02:22:45;16.00;99.90
11824;DHT22;5969;50.780;7.726;2022-08-14T02:25:12;16.00;99.90
11824;DHT22;5969;50.780;7.726;2022-08-14T02:27:40;16.00;99.90
11824;DHT22;5969;50.780;7.726;2022-08-14T02:30:08;16.00;99.90
11824;DHT22;5969;50.780;7.726;2022-08-14T02:32:37;15.90;99.90
11824;DHT22;5969;50.780;7.726;2022-08-14T02:35:07;15.80;99.90
11824;DHT22;5969;50.780;7.726;2022-08-14T02:37:40;15.70;99.90
11824;DHT22;5969;50.780;7.726;2022-08-14T02:40:07;15.70;99.90
11824;DHT22;5969;50.780;7.726;2022-08-14T02:42:34;15.70;99.90
11824;DHT22;5969;50.780;7.726;2022-08-14T02:45:01;15.60;99.90
11824;DHT22;5969;50.780;7.726;2022-08-14T02:47:28;15.70;99.90
11824;DHT22;5969;50.780;7.726;2022-08-14T02:49:57;15.80;99.90
11824;DHT22;5969;50.780;7.726;2022-08-14T02:52:24;15.80;99.90
11824;DHT22;5969;50.780;7.726;2022-08-14T02:54:52;15.80;99.90
11824;DHT22;5969;50.780;7.726;2022-08-14T02:57:19;15.80;99.90
11824;DHT22;5969;50.780;7.726;2022-08-14T02:59:48;15.80;99.90
11824;DHT22;5969;50.780;7.726;2022-08-14T03:02:15;15.80;99.90
11824;DHT22;5969;50.780;7.726;2022-08-14T03:04:42;15.80;99.90
11824;DHT22;5969;50.780;7.726;2022-08-14T03:07:10;15.80;99.90
11824;DHT22;5969;50.780;7.726;2022-08-14T03:09:38;15.80;99.90
11824;DHT22;5969;50.780;7.726;2022-08-14T03:12:05;15.70;99.90
11824;DHT22;5969;50.780;7.726;2022-08-14T03:14:32;15.60;99.90
11824;DHT22;5969;50.780;7.726;2022-08-14T03:17:02;15.60;99.90
11824;DHT22;5969;50.780;7.726;2022-08-14T03:19:29;15.60;99.90
11824;DHT22;5969;50.780;7.726;2022-08-14T03:21:56;15.40;99.90
11824;DHT22;5969;50.780;7.726;2022-08-14T03:24:24;15.30;99.90
11824;DHT22;5969;50.780;7.726;2022-08-14T03:26:51;15.10;99.90
11824;DHT22;5969;50.780;7.726;2022-08-14T03:29:20;15.10;99.90
11824;DHT22;5969;50.780;7.726;2022-08-14T03:31:47;15.10;99.90
11824;DHT22;5969;50.780;7.726;2022-08-14T03:34:16;15.20;99.90
11824;DHT22;5969;50.780;7.726;2022-08-14T03:36:48;15.10;99.90
11824;DHT22;5969;50.780;7.726;2022-08-14T03:39:19;15.10;99.90
11824;DHT22;5969;50.780;7.726;2022-08-14T03:41:49;15.00;99.90
11824;DHT22;5969;50.780;7.726;2022-08-14T03:44:16;14.90;99.90
11824;DHT22;5969;50.780;7.726;2022-08-14T03:46:43;14.90;99.90
11824;DHT22;5969;50.780;7.726;2022-08-14T03:49:10;14.80;99.90
11824;DHT22;5969;50.780;7.726;2022-08-14T03:51:38;14.80;99.90
11824;DHT22;5969;50.780;7.726;2022-08-14T03:54:07;14.90;99.90
11824;DHT22;5969;50.780;7.726;2022-08-14T03:56:34;14.90;99.90
11824;DHT22;5969;50.780;7.726;2022-08-14T03:59:05;15.00;99.90
11824;DHT22;5969;50.780;7.726;2022-08-14T04:01:32;15.00;99.90
11824;DHT22;5969;50.780;7.726;2022-08-14T04:03:59;14.90;99.90
11824;DHT22;5969;50.780;7.726;2022-08-14T04:06:30;14.90;99.90
11824;DHT22;5969;50.780;7.726;2022-08-14T04:08:57;14.80;99.90
11824;DHT22;5969;50.780;7.726;2022-08-14T04:11:24;14.70;99.90
11824;DHT22;5969;50.780;7.726;2022-08-14T04:13:51;14.60;99.90
11824;DHT22;5969;50.780;7.726;2022-08-14T04:16:21;14.50;99.90
11824;DHT22;5969;50.780;7.726;2022-08-14T04:18:51;14.40;99.90
11824;DHT22;5969;50.780;7.726;2022-08-14T04:21:19;14.40;99.90
11824;DHT22;5969;50.780;7.726;2022-08-14T04:23:47;14.50;99.90
11824;DHT22;5969;50.780;7.726;2022-08-14T04:26:15;14.60;99.90
11824;DHT22;5969;50.780;7.726;2022-08-14T04:28:43;14.60;99.90
11824;DHT22;5969;50.780;7.726;2022-08-14T04:31:10;14.70;99.90
11824;DHT22;5969;50.780;7.726;2022-08-14T04:33:38;14.60;99.90
11824;DHT22;5969;50.780;7.726;2022-08-14T04:36:05;14.50;99.90
11824;DHT22;5969;50.780;7.726;2022-08-14T04:38:32;14.50;99.90
11824;DHT22;5969;50.780;7.726;2022-08-14T04:41:17;14.40;99.90
11824;DHT22;5969;50.780;7.726;2022-08-14T04:44:12;14.40;99.90
11824;DHT22;5969;50.780;7.726;2022-08-14T04:46:39;14.40;99.90
11824;DHT22;5969;50.780;7.726;2022-08-14T04:49:27;14.40;99.90
11824;DHT22;5969;50.780;7.726;2022-08-14T04:51:53;14.50;99.90
11824;DHT22;5969;50.780;7.726;2022-08-14T04:54:20;14.50;99.90
11824;DHT22;5969;50.780;7.726;2022-08-14T04:56:47;14.60;99.90
11824;DHT22;5969;50.780;7.726;2022-08-14T04:59:13;14.60;99.90
11824;DHT22;5969;50.780;7.726;2022-08-14T05:01:41;14.70;99.90
11824;DHT22;5969;50.780;7.726;2022-08-14T05:04:09;14.70;99.90
11824;DHT22;5969;50.780;7.726;2022-08-14T05:06:38;14.70;99.90
11824;DHT22;5969;50.780;7.726;2022-08-14T05:09:06;14.80;99.90
11824;DHT22;5969;50.780;7.726;2022-08-14T05:11:32;14.90;99.90
11824;DHT22;5969;50.780;7.726;2022-08-14T05:14:00;15.00;99.90
11824;DHT22;5969;50.780;7.726;2022-08-14T05:16:27;15.10;99.90
11824;DHT22;5969;50.780;7.726;2022-08-14T05:18:56;15.10;99.90
11824;DHT22;5969;50.780;7.726;2022-08-14T05:21:23;15.10;99.90
11824;DHT22;5969;50.780;7.726;2022-08-14T05:23:52;15.20;99.90
11824;DHT22;5969;50.780;7.726;2022-08-14T05:26:19;15.30;99.90
11824;DHT22;5969;50.780;7.726;2022-08-14T05:28:46;15.40;99.90
11824;DHT22;5969;50.780;7.726;2022-08-14T05:31:14;15.60;99.90
11824;DHT22;5969;50.780;7.726;2022-08-14T05:33:43;15.70;99.90
11824;DHT22;5969;50.780;7.726;2022-08-14T05:36:11;15.70;99.90
11824;DHT22;5969;50.780;7.726;2022-08-14T05:38:40;15.90;99.90
11824;DHT22;5969;50.780;7.726;2022-08-14T05:41:10;16.00;99.90
11824;DHT22;5969;50.780;7.726;2022-08-14T05:43:38;16.10;99.90
11824;DHT22;5969;50.780;7.726;2022-08-14T05:46:06;16.10;99.90
11824;DHT22;5969;50.780;7.726;2022-08-14T05:48:32;16.20;99.90
11824;DHT22;5969;50.780;7.726;2022-08-14T05:50:59;16.30;99.90
11824;DHT22;5969;50.780;7.726;2022-08-14T05:53:27;16.40;99.90
11824;DHT22;5969;50.780;7.726;2022-08-14T05:55:54;16.50;99.90
11824;DHT22;5969;50.780;7.726;2022-08-14T05:58:22;16.60;99.90
11824;DHT22;5969;50.780;7.726;2022-08-14T06:00:49;16.70;99.90
11824;DHT22;5969;50.780;7.726;2022-08-14T06:03:18;16.90;99.90
11824;DHT22;5969;50.780;7.726;2022-08-14T06:05:48;16.90;99.90
11824;DHT22;5969;50.780;7.726;2022-08-14T06:08:18;16.90;99.90
11824;DHT22;5969;50.780;7.726;2022-08-14T06:10:45;17.10;99.90
11824;DHT22;5969;50.780;7.726;2022-08-14T06:13:12;17.30;99.90
11824;DHT22;5969;50.780;7.726;2022-08-14T06:15:40;17.50;99.90
11824;DHT22;5969;50.780;7.726;2022-08-14T06:18:07;17.70;99.90
11824;DHT22;5969;50.780;7.726;2022-08-14T06:20:35;18.00;99.90
11824;DHT22;5969;50.780;7.726;2022-08-14T06:23:02;18.10;99.90
11824;DHT22;5969;50.780;7.726;2022-08-14T06:25:30;18.20;99.90
11824;DHT22;5969;50.780;7.726;2022-08-14T06:27:56;18.30;99.90
11824;DHT22;5969;50.780;7.726;2022-08-14T06:30:25;18.40;99.90
11824;DHT22;5969;50.780;7.726;2022-08-14T06:32:53;18.70;99.90
11824;DHT22;5969;50.780;7.726;2022-08-14T06:35:20;18.90;99.90
11824;DHT22;5969;50.780;7.726;2022-08-14T06:37:49;19.20;99.90
11824;DHT22;5969;50.780;7.726;2022-08-14T06:40:18;19.50;99.90
11824;DHT22;5969;50.780;7.726;2022-08-14T06:42:45;19.70;99.90
11824;DHT22;5969;50.780;7.726;2022-08-14T06:45:13;19.80;99.90
11824;DHT22;5969;50.780;7.726;2022-08-14T06:47:41;20.00;99.90
11824;DHT22;5969;50.780;7.726;2022-08-14T06:50:13;20.20;99.90
11824;DHT22;5969;50.780;7.726;2022-08-14T06:52:41;20.30;99.90
11824;DHT22;5969;50.780;7.726;2022-08-14T06:55:10;20.40;99.90
11824;DHT22;5969;50.780;7.726;2022-08-14T06:57:38;20.60;99.90
11824;DHT22;5969;50.780;7.726;2022-08-14T07:00:08;20.80;99.90
11824;DHT22;5969;50.780;7.726;2022-08-14T07:02:36;21.00;99.90
11824;DHT22;5969;50.780;7.726;2022-08-14T07:05:22;21.20;99.90
11824;DHT22;5969;50.780;7.726;2022-08-14T07:08:11;21.50;99.90
11824;DHT22;5969;50.780;7.726;2022-08-14T07:10:38;21.70;99.90
11824;DHT22;5969;50.780;7.726;2022-08-14T07:13:06;21.90;99.90
11824;DHT22;5969;50.780;7.726;2022-08-14T07:15:33;22.00;99.90
11824;DHT22;5969;50.780;7.726;2022-08-14T07:18:00;22.20;99.90
11824;DHT22;5969;50.780;7.726;2022-08-14T07:20:29;22.40;99.90
11824;DHT22;5969;50.780;7.726;2022-08-14T07:22:56;22.50;99.90
11824;DHT22;5969;50.780;7.726;2022-08-14T07:25:24;22.70;99.90
11824;DHT22;5969;50.780;7.726;2022-08-14T07:27:52;22.80;99.90
11824;DHT22;5969;50.780;7.726;2022-08-14T07:30:19;22.90;99.90
11824;DHT22;5969;50.780;7.726;2022-08-14T07:32:45;23.00;99.90
11824;DHT22;5969;50.780;7.726;2022-08-14T07:35:12;23.20;99.90
11824;DHT22;5969;50.780;7.726;2022-08-14T07:37:41;23.30;99.90
11824;DHT22;5969;50.780;7.726;2022-08-14T07:40:09;23.30;99.90
11824;DHT22;5969;50.780;7.726;2022-08-14T07:42:37;23.50;99.90
11824;DHT22;5969;50.780;7.726;2022-08-14T07:45:04;23.60;99.90
11824;DHT22;5969;50.780;7.726;2022-08-14T07:47:31;23.70;99.90
11824;DHT22;5969;50.780;7.726;2022-08-14T07:50:00;23.80;99.90
11824;DHT22;5969;50.780;7.726;2022-08-14T07:52:27;23.90;99.90
11824;DHT22;5969;50.780;7.726;2022-08-14T07:54:55;24.00;99.90
11824;DHT22;5969;50.780;7.726;2022-08-14T07:57:22;24.10;99.90
11824;DHT22;5969;50.780;7.726;2022-08-14T07:59:50;24.20;99.90
11824;DHT22;5969;50.780;7.726;2022-08-14T08:02:18;24.30;99.90
11824;DHT22;5969;50.780;7.726;2022-08-14T08:04:47;24.40;99.90
11824;DHT22;5969;50.780;7.726;2022-08-14T08:07:15;24.50;99.90
11824;DHT22;5969;50.780;7.726;2022-08-14T08:09:45;24.60;99.90
11824;DHT22;5969;50.780;7.726;2022-08-14T08:12:15;24.60;99.90
11824;DHT22;5969;50.780;7.726;2022-08-14T08:14:43;24.80;99.90
11824;DHT22;5969;50.780;7.726;2022-08-14T08:17:10;24.80;99.90
11824;DHT22;5969;50.780;7.726;2022-08-14T08:19:37;25.00;99.90
11824;DHT22;5969;50.780;7.726;2022-08-14T08:22:04;25.20;99.90
11824;DHT22;5969;50.780;7.726;2022-08-14T08:24:31;25.30;99.90
11824;DHT22;5969;50.780;7.726;2022-08-14T08:26:58;25.30;99.90
11824;DHT22;5969;50.780;7.726;2022-08-14T08:29:27;25.30;99.90
11824;DHT22;5969;50.780;7.726;2022-08-14T08:31:54;25.50;99.90
11824;DHT22;5969;50.780;7.726;2022-08-14T08:34:20;25.60;99.90
11824;DHT22;5969;50.780;7.726;2022-08-14T08:36:47;25.70;99.90
11824;DHT22;5969;50.780;7.726;2022-08-14T08:39:14;25.70;99.90
11824;DHT22;5969;50.780;7.726;2022-08-14T08:41:43;25.80;99.90
11824;DHT22;5969;50.780;7.726;2022-08-14T08:44:10;25.90;99.90
11824;DHT22;5969;50.780;7.726;2022-08-14T08:46:39;26.10;99.90
11824;DHT22;5969;50.780;7.726;2022-08-14T08:49:07;26.20;99.90
11824;DHT22;5969;50.780;7.726;2022-08-14T08:51:36;26.40;99.90
11824;DHT22;5969;50.780;7.726;2022-08-14T08:54:06;26.40;99.90
11824;DHT22;5969;50.780;7.726;2022-08-14T08:56:35;26.30;99.90
11824;DHT22;5969;50.780;7.726;2022-08-14T08:59:14;26.40;99.90
11824;DHT22;5969;50.780;7.726;2022-08-14T09:01:46;26.50;99.90
11824;DHT22;5969;50.780;7.726;2022-08-14T09:04:13;26.70;99.90
11824;DHT22;5969;50.780;7.726;2022-08-14T09:06:43;26.70;99.90
11824;DHT22;5969;50.780;7.726;2022-08-14T09:09:17;26.80;99.90
11824;DHT22;5969;50.780;7.726;2022-08-14T09:11:44;27.00;99.90
11824;DHT22;5969;50.780;7.726;2022-08-14T09:14:11;27.20;99.90
11824;DHT22;5969;50.780;7.726;2022-08-14T09:16:38;27.20;99.90
11824;DHT22;5969;50.780;7.726;2022-08-14T09:19:06;27.30;99.90
11824;DHT22;5969;50.780;7.726;2022-08-14T09:21:34;27.30;99.90
11824;DHT22;5969;50.780;7.726;2022-08-14T09:24:01;27.30;99.90
11824;DHT22;5969;50.780;7.726;2022-08-14T09:26:28;27.30;99.90
11824;DHT22;5969;50.780;7.726;2022-08-14T09:28:55;27.40;99.90
11824;DHT22;5969;50.780;7.726;2022-08-14T09:31:22;27.50;99.90
11824;DHT22;5969;50.780;7.726;2022-08-14T09:34:09;27.70;99.90
11824;DHT22;5969;50.780;7.726;2022-08-14T09:36:51;27.40;99.90
11824;DHT22;5969;50.780;7.726;2022-08-14T09:39:31;27.30;99.90
11824;DHT22;5969;50.780;7.726;2022-08-14T09:42:15;27.30;99.90
11824;DHT22;5969;50.780;7.726;2022-08-14T09:44:56;27.50;99.90
11824;DHT22;5969;50.780;7.726;2022-08-14T09:47:40;27.40;99.90
11824;DHT22;5969;50.780;7.726;2022-08-14T09:50:17;27.20;99.90
11824;DHT22;5969;50.780;7.726;2022-08-14T09:52:48;27.20;99.90
11824;DHT22;5969;50.780;7.726;2022-08-14T09:55:16;27.50;99.90
11824;DHT22;5969;50.780;7.726;2022-08-14T09:57:46;27.80;99.90
11824;DHT22;5969;50.780;7.726;2022-08-14T10:00:14;28.20;99.90
11824;DHT22;5969;50.780;7.726;2022-08-14T10:02:51;28.50;99.90
11824;DHT22;5969;50.780;7.726;2022-08-14T10:05:28;28.70;99.40
11824;DHT22;5969;50.780;7.726;2022-08-14T10:07:56;28.50;99.20
11824;DHT22;5969;50.780;7.726;2022-08-14T10:10:28;28.20;99.40
11824;DHT22;5969;50.780;7.726;2022-08-14T10:12:56;28.20;99.40
11824;DHT22;5969;50.780;7.726;2022-08-14T10:15:24;28.20;98.90
11824;DHT22;5969;50.780;7.726;2022-08-14T10:18:04;28.30;99.70
11824;DHT22;5969;50.780;7.726;2022-08-14T10:20:37;29.00;99.10
11824;DHT22;5969;50.780;7.726;2022-08-14T10:23:14;29.40;97.70
11824;DHT22;5969;50.780;7.726;2022-08-14T10:25:44;29.70;97.20
11824;DHT22;5969;50.780;7.726;2022-08-14T10:28:15;29.50;97.00
11824;DHT22;5969;50.780;7.726;2022-08-14T10:30:44;29.50;97.00
11824;DHT22;5969;50.780;7.726;2022-08-14T10:33:24;29.60;96.40
11824;DHT22;5969;50.780;7.726;2022-08-14T10:35:52;29.20;96.30
11824;DHT22;5969;50.780;7.726;2022-08-14T10:38:26;29.20;96.70
11824;DHT22;5969;50.780;7.726;2022-08-14T10:40:54;29.40;96.70
11824;DHT22;5969;50.780;7.726;2022-08-14T10:43:23;29.50;96.40
11824;DHT22;5969;50.780;7.726;2022-08-14T10:45:53;29.60;95.90
11824;DHT22;5969;50.780;7.726;2022-08-14T10:48:20;29.80;96.00
11824;DHT22;5969;50.780;7.726;2022-08-14T10:50:47;29.60;95.60
11824;DHT22;5969;50.780;7.726;2022-08-14T10:53:31;29.80;95.80
11824;DHT22;5969;50.780;7.726;2022-08-14T10:56:01;30.20;95.80
11824;DHT22;5969;50.780;7.726;2022-08-14T10:58:31;30.40;95.00
11824;DHT22;5969;50.780;7.726;2022-08-14T11:00:59;29.80;95.00
11824;DHT22;5969;50.780;7.726;2022-08-14T11:03:39;29.80;95.20
11824;DHT22;5969;50.780;7.726;2022-08-14T11:06:15;29.90;95.40
11824;DHT22;5969;50.780;7.726;2022-08-14T11:08:46;30.10;95.10
11824;DHT22;5969;50.780;7.726;2022-08-14T11:11:14;30.10;94.70
11824;DHT22;5969;50.780;7.726;2022-08-14T11:13:43;30.00;95.30
11824;DHT22;5969;50.780;7.726;2022-08-14T11:16:11;29.80;95.40
11824;DHT22;5969;50.780;7.726;2022-08-14T11:18:40;30.10;95.00
11824;DHT22;5969;50.780;7.726;2022-08-14T11:21:14;29.90;94.90
11824;DHT22;5969;50.780;7.726;2022-08-14T11:23:45;30.00;95.40
11824;DHT22;5969;50.780;7.726;2022-08-14T11:26:14;30.50;95.00
11824;DHT22;5969;50.780;7.726;2022-08-14T11:28:45;30.70;94.00
11824;DHT22;5969;50.780;7.726;2022-08-14T11:31:12;30.50;93.90
11824;DHT22;5969;50.780;7.726;2022-08-14T11:33:40;30.30;93.80
11824;DHT22;5969;50.780;7.726;2022-08-14T11:36:08;30.20;94.20
11824;DHT22;5969;50.780;7.726;2022-08-14T11:38:36;30.10;93.80
11824;DHT22;5969;50.780;7.726;2022-08-14T11:41:04;30.00;94.40
11824;DHT22;5969;50.780;7.726;2022-08-14T11:43:36;30.20;94.30
11824;DHT22;5969;50.780;7.726;2022-08-14T11:46:05;30.40;93.50
11824;DHT22;5969;50.780;7.726;2022-08-14T11:48:32;30.70;93.50
11824;DHT22;5969;50.780;7.726;2022-08-14T11:51:12;31.10;93.20
11824;DHT22;5969;50.780;7.726;2022-08-14T11:53:39;31.40;92.60
11824;DHT22;5969;50.780;7.726;2022-08-14T11:56:09;30.80;93.50
11824;DHT22;5969;50.780;7.726;2022-08-14T11:58:37;31.00;92.50
11824;DHT22;5969;50.780;7.726;2022-08-14T12:01:06;31.20;92.00
11824;DHT22;5969;50.780;7.726;2022-08-14T12:03:37;31.20;91.60
11824;DHT22;5969;50.780;7.726;2022-08-14T12:06:05;31.10;92.10
11824;DHT22;5969;50.780;7.726;2022-08-14T12:08:33;30.80;91.90
11824;DHT22;5969;50.780;7.726;2022-08-14T12:11:02;30.70;92.50
11824;DHT22;5969;50.780;7.726;2022-08-14T12:13:31;31.00;91.50
11824;DHT22;5969;50.780;7.726;2022-08-14T12:15:59;31.20;91.50
11824;DHT22;5969;50.780;7.726;2022-08-14T12:18:30;31.60;92.00
11824;DHT22;5969;50.780;7.726;2022-08-14T12:21:09;31.70;91.60
11824;DHT22;5969;50.780;7.726;2022-08-14T12:23:36;31.90;91.40
11824;DHT22;5969;50.780;7.726;2022-08-14T12:26:03;31.60;91.40
11824;DHT22;5969;50.780;7.726;2022-08-14T12:28:32;31.30;91.20
11824;DHT22;5969;50.780;7.726;2022-08-14T12:30:59;31.00;91.90
11824;DHT22;5969;50.780;7.726;2022-08-14T12:33:28;30.90;91.20
11824;DHT22;5969;50.780;7.726;2022-08-14T12:35:59;31.20;91.10
11824;DHT22;5969;50.780;7.726;2022-08-14T12:38:37;31.60;90.60
11824;DHT22;5969;50.780;7.726;2022-08-14T12:41:10;31.40;90.90
11824;DHT22;5969;50.780;7.726;2022-08-14T12:43:46;31.20;90.50
11824;DHT22;5969;50.780;7.726;2022-08-14T12:46:20;31.40;91.00
11824;DHT22;5969;50.780;7.726;2022-08-14T12:48:48;31.20;90.80
11824;DHT22;5969;50.780;7.726;2022-08-14T12:51:17;31.30;91.00
11824;DHT22;5969;50.780;7.726;2022-08-14T12:53:45;31.70;90.70
11824;DHT22;5969;50.780;7.726;2022-08-14T12:56:16;31.80;90.90
11824;DHT22;5969;50.780;7.726;2022-08-14T12:58:48;32.10;89.10
11824;DHT22;5969;50.780;7.726;2022-08-14T13:01:23;31.90;88.90
11824;DHT22;5969;50.780;7.726;2022-08-14T13:03:50;31.80;90.10
11824;DHT22;5969;50.780;7.726;2022-08-14T13:06:18;31.80;89.20
11824;DHT22;5969;50.780;7.726;2022-08-14T13:08:48;31.30;90.30
11824;DHT22;5969;50.780;7.726;2022-08-14T13:11:16;31.40;90.10
11824;DHT22;5969;50.780;7.726;2022-08-14T13:13:43;31.40;90.00
11824;DHT22;5969;50.780;7.726;2022-08-14T13:16:13;31.20;90.00
11824;DHT22;5969;50.780;7.726;2022-08-14T13:18:41;31.30;89.50
11824;DHT22;5969;50.780;7.726;2022-08-14T13:21:11;31.60;89.10
11824;DHT22;5969;50.780;7.726;2022-08-14T13:23:39;31.60;89.10
11824;DHT22;5969;50.780;7.726;2022-08-14T13:26:08;31.50;89.60
11824;DHT22;5969;50.780;7.726;2022-08-14T13:28:39;31.40;90.40
11824;DHT22;5969;50.780;7.726;2022-08-14T13:31:08;31.50;90.10
11824;DHT22;5969;50.780;7.726;2022-08-14T13:33:39;32.00;90.50
11824;DHT22;5969;50.780;7.726;2022-08-14T13:36:09;32.70;89.50
11824;DHT22;5969;50.780;7.726;2022-08-14T13:38:36;33.40;86.00
11824;DHT22;5969;50.780;7.726;2022-08-14T13:41:04;33.50;86.40
11824;DHT22;5969;50.780;7.726;2022-08-14T13:43:34;33.90;87.70
11824;DHT22;5969;50.780;7.726;2022-08-14T13:46:04;35.10;85.30
11824;DHT22;5969;50.780;7.726;2022-08-14T13:48:31;34.40;86.40
11824;DHT22;5969;50.780;7.726;2022-08-14T13:51:00;33.80;86.80
11824;DHT22;5969;50.780;7.726;2022-08-14T13:53:29;32.80;86.70
11824;DHT22;5969;50.780;7.726;2022-08-14T13:55:59;32.40;86.80
11824;DHT22;5969;50.780;7.726;2022-08-14T13:58:27;31.90;87.80
11824;DHT22;5969;50.780;7.726;2022-08-14T14:00:56;31.70;88.10
11824;DHT22;5969;50.780;7.726;2022-08-14T14:03:23;31.90;88.10
11824;DHT22;5969;50.780;7.726;2022-08-14T14:05:52;31.70;88.00
11824;DHT22;5969;50.780;7.726;2022-08-14T14:08:23;33.50;85.90
11824;DHT22;5969;50.780;7.726;2022-08-14T14:10:50;34.90;85.20
11824;DHT22;5969;50.780;7.726;2022-08-14T14:13:19;37.10;82.30
11824;DHT22;5969;50.780;7.726;2022-08-14T14:15:47;38.40;79.50
11824;DHT22;5969;50.780;7.726;2022-08-14T14:18:14;38.60;78.70
11824;DHT22;5969;50.780;7.726;2022-08-14T14:20:42;39.00;77.90
11824;DHT22;5969;50.780;7.726;2022-08-14T14:23:11;39.20;77.60
11824;DHT22;5969;50.780;7.726;2022-08-14T14:25:41;39.90;77.60
11824;DHT22;5969;50.780;7.726;2022-08-14T14:28:12;38.30;77.20
11824;DHT22;5969;50.780;7.726;2022-08-14T14:30:40;38.00;77.40
11824;DHT22;5969;50.780;7.726;2022-08-14T14:33:12;37.60;77.20
11824;DHT22;5969;50.780;7.726;2022-08-14T14:35:42;37.20;77.70
11824;DHT22;5969;50.780;7.726;2022-08-14T14:38:13;36.30;77.30
11824;DHT22;5969;50.780;7.726;2022-08-14T14:40:42;35.70;77.60
11824;DHT22;5969;50.780;7.726;2022-08-14T14:43:11;34.80;78.40
11824;DHT22;5969;50.780;7.726;2022-08-14T14:45:42;34.90;78.70
11824;DHT22;5969;50.780;7.726;2022-08-14T14:48:10;35.80;77.10
11824;DHT22;5969;50.780;7.726;2022-08-14T14:50:37;36.80;76.90
11824;DHT22;5969;50.780;7.726;2022-08-14T14:53:04;37.80;75.80
11824;DHT22;5969;50.780;7.726;2022-08-14T14:55:33;38.80;73.90
11824;DHT22;5969;50.780;7.726;2022-08-14T14:58:01;39.30;75.90
11824;DHT22;5969;50.780;7.726;2022-08-14T15:00:28;39.70;74.20
11824;DHT22;5969;50.780;7.726;2022-08-14T15:02:55;40.90;73.20
11824;DHT22;5969;50.780;7.726;2022-08-14T15:05:22;40.50;71.70
11824;DHT22;5969;50.780;7.726;2022-08-14T15:07:51;39.90;73.40
11824;DHT22;5969;50.780;7.726;2022-08-14T15:10:20;38.50;73.00
11824;DHT22;5969;50.780;7.726;2022-08-14T15:12:49;39.30;72.90
11824;DHT22;5969;50.780;7.726;2022-08-14T15:15:17;38.70;72.40
11824;DHT22;5969;50.780;7.726;2022-08-14T15:17:44;37.60;72.00
11824;DHT22;5969;50.780;7.726;2022-08-14T15:20:12;36.50;74.10
11824;DHT22;5969;50.780;7.726;2022-08-14T15:22:39;37.50;73.40
11824;DHT22;5969;50.780;7.726;2022-08-14T15:25:08;37.60;71.20
11824;DHT22;5969;50.780;7.726;2022-08-14T15:27:36;37.90;72.60
11824;DHT22;5969;50.780;7.726;2022-08-14T15:30:04;38.40;72.50
11824;DHT22;5969;50.780;7.726;2022-08-14T15:32:32;39.50;70.20
11824;DHT22;5969;50.780;7.726;2022-08-14T15:34:59;39.70;69.50
11824;DHT22;5969;50.780;7.726;2022-08-14T15:37:26;39.40;71.10
11824;DHT22;5969;50.780;7.726;2022-08-14T15:39:53;40.80;70.40
11824;DHT22;5969;50.780;7.726;2022-08-14T15:42:20;42.10;69.10
11824;DHT22;5969;50.780;7.726;2022-08-14T15:44:48;41.50;68.40
11824;DHT22;5969;50.780;7.726;2022-08-14T15:47:16;40.90;69.00
11824;DHT22;5969;50.780;7.726;2022-08-14T15:49:44;39.50;68.40
11824;DHT22;5969;50.780;7.726;2022-08-14T15:52:12;38.30;68.20
11824;DHT22;5969;50.780;7.726;2022-08-14T15:54:39;38.80;69.90
11824;DHT22;5969;50.780;7.726;2022-08-14T15:57:07;39.90;68.60